createdAt,value
2022-10-06T00:00:47.523Z,1005.26
2022-10-06T00:05:47.531Z,1005.37
2022-10-06T00:10:47.323Z,1005.44
2022-10-06T00:15:47.347Z,1005.66
2022-10-06T00:20:47.394Z,1005.72
2022-10-06T00:25:47.173Z,1005.74
2022-10-06T00:30:47.150Z,1005.73
2022-10-06T00:35:47.004Z,1005.80
2022-10-06T00:40:46.988Z,1005.86
2022-10-06T00:45:47.070Z,1006.02
2022-10-06T00:50:46.978Z,1005.99
2022-10-06T00:55:46.789Z,1006.10
2022-10-06T01:00:47.834Z,1006.10
2022-10-06T01:05:46.828Z,1006.24
2022-10-06T01:10:46.811Z,1006.32
2022-10-06T01:15:46.609Z,1006.44
2022-10-06T01:20:46.510Z,1006.49
2022-10-06T01:25:46.612Z,1006.61
2022-10-06T01:30:46.431Z,1006.72
2022-10-06T01:35:46.374Z,1006.75
2022-10-06T01:40:46.339Z,1006.78
2022-10-06T01:45:46.276Z,1006.86
2022-10-06T01:50:46.225Z,1006.92
2022-10-06T01:55:46.182Z,1006.96
2022-10-06T02:00:46.172Z,1006.99
2022-10-06T02:05:46.008Z,1007.00
2022-10-06T02:10:45.998Z,1007.10
2022-10-06T02:15:45.912Z,1007.10
2022-10-06T02:20:45.864Z,1007.24
2022-10-06T02:25:45.815Z,1007.34
2022-10-06T02:30:45.723Z,1007.35
2022-10-06T02:35:45.680Z,1007.43
2022-10-06T02:40:45.602Z,1007.52
2022-10-06T02:45:45.584Z,1007.62
2022-10-06T02:50:45.534Z,1007.68
2022-10-06T02:55:45.655Z,1007.72
2022-10-06T03:00:45.504Z,1007.81
2022-10-06T03:05:46.394Z,1007.86
2022-10-06T03:10:45.378Z,1007.89
2022-10-06T03:15:45.367Z,1008.01
2022-10-06T03:20:45.280Z,1008.14
2022-10-06T03:25:45.167Z,1008.26
2022-10-06T03:30:53.950Z,1008.27
2022-10-06T03:35:44.969Z,1008.46
2022-10-06T03:40:44.954Z,1008.44
2022-10-06T03:45:44.878Z,1008.58
2022-10-06T03:50:44.830Z,1008.64
2022-10-06T03:55:44.847Z,1008.78
2022-10-06T04:00:44.829Z,1008.84
2022-10-06T04:05:44.688Z,1008.93
2022-10-06T04:10:44.570Z,1009.09
2022-10-06T04:15:44.524Z,1009.08
2022-10-06T04:20:44.459Z,1009.17
2022-10-06T04:25:44.439Z,1009.24
2022-10-06T04:30:44.334Z,1009.29
2022-10-06T04:35:44.305Z,1009.40
2022-10-06T04:40:44.246Z,1009.45
2022-10-06T04:45:44.198Z,1009.62
2022-10-06T04:50:44.217Z,1009.60
2022-10-06T04:55:44.133Z,1009.68
2022-10-06T05:00:44.149Z,1009.84
2022-10-06T05:05:44.011Z,1009.89
2022-10-06T05:10:43.893Z,1010.05
2022-10-06T05:15:43.838Z,1010.12
2022-10-06T05:20:43.791Z,1010.22
2022-10-06T05:25:43.782Z,1010.28
2022-10-06T05:30:43.683Z,1010.36
2022-10-06T05:35:43.695Z,1010.43
2022-10-06T05:40:43.718Z,1010.44
2022-10-06T05:45:43.636Z,1010.54
2022-10-06T05:50:45.449Z,1010.61
2022-10-06T05:55:43.400Z,1010.71
2022-10-06T06:00:43.375Z,1010.80
2022-10-06T06:05:43.287Z,1010.93
2022-10-06T06:10:43.230Z,1011.07
2022-10-06T06:15:43.222Z,1011.10
2022-10-06T06:20:43.281Z,1011.15
2022-10-06T06:25:43.196Z,1011.18
2022-10-06T06:30:43.107Z,1011.12
2022-10-06T06:35:43.032Z,1011.28
2022-10-06T06:40:46.530Z,1011.35
2022-10-06T06:45:42.942Z,1011.43
2022-10-06T06:50:42.957Z,1011.53
2022-10-06T06:55:42.885Z,1011.67
2022-10-06T07:00:43.901Z,1011.75
2022-10-06T07:05:42.719Z,1011.70
2022-10-06T07:10:42.728Z,1011.77
2022-10-06T07:15:42.744Z,1011.85
2022-10-06T07:20:42.617Z,1011.89
2022-10-06T07:25:43.592Z,1011.97
2022-10-06T07:30:43.570Z,1012.11
2022-10-06T07:35:44.389Z,1012.20
2022-10-06T07:40:50.643Z,1012.26
2022-10-06T07:45:43.368Z,1012.32
2022-10-06T07:50:42.243Z,1012.47
2022-10-06T07:55:42.154Z,1012.47
2022-10-06T08:00:42.066Z,1012.49
2022-10-06T08:05:42.003Z,1012.49
2022-10-06T08:10:41.993Z,1012.55
2022-10-06T08:15:42.006Z,1012.66
2022-10-06T08:20:41.891Z,1012.65
2022-10-06T08:25:41.739Z,1012.69
2022-10-06T08:30:41.713Z,1012.69
2022-10-06T08:35:41.766Z,1012.67
2022-10-06T08:40:41.717Z,1012.77
2022-10-06T08:45:41.697Z,1012.83
2022-10-06T08:50:41.573Z,1012.83
2022-10-06T08:55:41.527Z,1012.82
2022-10-06T09:00:41.360Z,1012.86
2022-10-06T09:05:41.364Z,1012.86
2022-10-06T09:10:41.357Z,1012.98
2022-10-06T09:15:41.267Z,1013.01
2022-10-06T09:20:41.160Z,1013.15
2022-10-06T09:25:41.117Z,1013.19
2022-10-06T09:30:54.566Z,1013.17
2022-10-06T09:35:41.933Z,1013.29
2022-10-06T09:40:40.913Z,1013.24
2022-10-06T09:45:40.880Z,1013.25
2022-10-06T09:50:40.785Z,1013.32
2022-10-06T09:55:41.342Z,1013.20
2022-10-06T10:00:40.873Z,1013.30
2022-10-06T10:05:40.750Z,1013.16
2022-10-06T10:10:40.569Z,1013.22
2022-10-06T10:15:40.653Z,1013.24
2022-10-06T10:20:41.156Z,1013.16
2022-10-06T10:25:40.430Z,1013.13
2022-10-06T10:30:40.463Z,1013.19
2022-10-06T10:35:40.914Z,1013.19
2022-10-06T10:40:40.462Z,1013.08
2022-10-06T10:45:40.236Z,1013.21
2022-10-06T10:50:41.422Z,1013.13
2022-10-06T10:55:40.278Z,1013.21
2022-10-06T11:00:40.301Z,1013.17
2022-10-06T11:05:40.090Z,1013.15
2022-10-06T11:10:39.995Z,1013.14
2022-10-06T11:15:41.282Z,1013.10
2022-10-06T11:20:40.068Z,1013.15
2022-10-06T11:25:39.915Z,1013.09
2022-10-06T11:30:41.985Z,1013.18
2022-10-06T11:35:39.704Z,1013.10
2022-10-06T11:40:39.662Z,1013.21
2022-10-06T11:45:39.665Z,1013.23
2022-10-06T11:50:39.626Z,1013.16
2022-10-06T11:55:39.500Z,1013.14
2022-10-06T12:00:39.677Z,1013.15
2022-10-06T12:05:56.666Z,1013.17
2022-10-06T12:10:40.361Z,1013.07
2022-10-06T12:20:40.368Z,1012.82
2022-10-06T12:25:39.214Z,1012.83
2022-10-06T12:30:39.106Z,1012.89
2022-10-06T12:35:39.224Z,1012.85
2022-10-06T12:40:40.300Z,1012.92
2022-10-06T12:45:43.563Z,1012.90
2022-10-06T12:50:39.918Z,1012.87
2022-10-06T12:55:38.870Z,1012.83
2022-10-06T13:00:38.887Z,1012.89
2022-10-06T13:05:38.685Z,1012.85
2022-10-06T13:10:38.762Z,1012.93
2022-10-06T13:15:38.844Z,1012.82
2022-10-06T13:20:38.564Z,1012.92
2022-10-06T13:25:38.506Z,1012.91
2022-10-06T13:30:39.024Z,1012.91
2022-10-06T13:35:38.409Z,1012.90
2022-10-06T13:40:44.625Z,1012.93
2022-10-06T13:45:39.439Z,1012.93
2022-10-06T13:50:38.179Z,1012.92
2022-10-06T13:55:38.363Z,1012.99
2022-10-06T14:00:38.147Z,1013.01
2022-10-06T14:05:38.068Z,1012.95
2022-10-06T14:10:39.029Z,1013.00
2022-10-06T14:15:38.054Z,1012.97
2022-10-06T14:20:39.250Z,1012.98
2022-10-06T14:25:37.886Z,1012.98
2022-10-06T14:30:37.792Z,1012.95
2022-10-06T14:35:37.710Z,1013.01
2022-10-06T14:40:37.787Z,1012.95
2022-10-06T14:45:37.660Z,1012.92
2022-10-06T14:50:37.553Z,1012.95
2022-10-06T14:55:37.617Z,1012.97
2022-10-06T15:00:37.594Z,1012.97
2022-10-06T15:05:37.549Z,1012.98
2022-10-06T15:10:37.399Z,1012.99
2022-10-06T15:15:37.399Z,1012.99
2022-10-06T15:20:37.309Z,1012.99
2022-10-06T15:25:37.253Z,1012.97
2022-10-06T15:44:04.752Z,1012.96
2022-10-06T15:49:05.776Z,1012.92
2022-10-06T15:54:06.524Z,1012.92
2022-10-06T15:59:04.870Z,1012.96
2022-10-06T16:07:09.409Z,1012.93
2022-10-06T16:12:09.476Z,1012.97
2022-10-06T16:17:09.602Z,1012.98
2022-10-06T16:22:09.296Z,1012.99
2022-10-06T16:27:09.144Z,1012.98
2022-10-06T16:32:10.047Z,1012.97
2022-10-06T16:37:09.027Z,1013.00
2022-10-06T16:42:09.002Z,1013.05
2022-10-06T16:47:10.070Z,1013.07
2022-10-06T16:52:08.879Z,1013.17
2022-10-06T16:57:08.815Z,1013.17
2022-10-06T17:02:08.965Z,1013.24
2022-10-06T17:07:12.018Z,1013.26
2022-10-06T17:12:08.662Z,1013.25
2022-10-06T17:17:08.655Z,1013.27
2022-10-06T17:22:08.559Z,1013.28
2022-10-06T17:27:08.486Z,1013.25
2022-10-06T17:32:08.515Z,1013.27
2022-10-06T17:37:08.461Z,1013.32
2022-10-06T17:42:08.452Z,1013.29
2022-10-06T17:47:08.377Z,1013.30
2022-10-06T17:52:08.132Z,1013.39
2022-10-06T17:57:11.720Z,1013.36
2022-10-06T18:02:09.154Z,1013.39
2022-10-06T18:07:08.037Z,1013.38
2022-10-06T18:12:07.935Z,1013.38
2022-10-06T18:17:08.013Z,1013.31
2022-10-06T18:22:07.923Z,1013.33
2022-10-06T18:27:08.156Z,1013.31
2022-10-06T18:32:59.225Z,1013.31
2022-10-06T18:37:09.852Z,1013.35
2022-10-06T18:42:07.641Z,1013.30
2022-10-06T18:47:07.558Z,1013.28
2022-10-06T18:52:07.513Z,1013.27
2022-10-06T18:57:10.860Z,1013.37
2022-10-06T19:02:07.427Z,1013.34
2022-10-06T19:07:08.380Z,1013.42
2022-10-06T19:12:07.414Z,1013.45
2022-10-06T19:17:07.364Z,1013.41
2022-10-06T19:22:07.198Z,1013.48
2022-10-06T19:27:07.185Z,1013.48
2022-10-06T19:32:07.108Z,1013.53
2022-10-06T19:37:07.039Z,1013.47
2022-10-06T19:42:07.058Z,1013.49
2022-10-06T19:47:06.977Z,1013.48
2022-10-06T19:52:06.843Z,1013.49
2022-10-06T19:57:06.887Z,1013.51
2022-10-06T20:02:06.752Z,1013.46
2022-10-06T20:07:06.788Z,1013.52
2022-10-06T20:12:07.659Z,1013.50
2022-10-06T20:17:06.668Z,1013.53
2022-10-06T20:22:09.937Z,1013.52
2022-10-06T20:27:06.499Z,1013.51
2022-10-06T20:32:06.514Z,1013.47
2022-10-06T20:37:06.464Z,1013.52
2022-10-06T20:42:09.375Z,1013.54
2022-10-06T20:47:07.313Z,1013.54
2022-10-06T20:52:06.256Z,1013.52
2022-10-06T20:57:06.238Z,1013.45
2022-10-06T21:02:06.160Z,1013.45
2022-10-06T21:07:06.195Z,1013.45
2022-10-06T21:12:05.982Z,1013.43
2022-10-06T21:17:05.941Z,1013.38
2022-10-06T21:22:05.890Z,1013.36
2022-10-06T21:27:05.855Z,1013.32
2022-10-06T21:34:45.683Z,1013.28
2022-10-06T21:39:45.562Z,1013.25
2022-10-06T21:44:45.547Z,1013.22
2022-10-06T21:49:45.646Z,1013.19
2022-10-06T21:54:45.661Z,1013.15
2022-10-06T21:59:45.350Z,1013.04
2022-10-06T22:04:45.432Z,1012.99
2022-10-06T22:09:45.245Z,1012.93
2022-10-06T22:14:46.321Z,1012.93
2022-10-06T22:19:45.210Z,1012.92
2022-10-06T22:24:45.153Z,1012.92
2022-10-06T22:29:45.044Z,1012.85
2022-10-06T22:34:44.979Z,1012.86
2022-10-06T22:39:44.966Z,1012.83
2022-10-06T22:44:44.874Z,1012.69
2022-10-06T22:49:44.882Z,1012.62
2022-10-06T22:54:44.914Z,1012.59
2022-10-06T22:59:44.696Z,1012.58
2022-10-06T23:04:44.796Z,1012.46
2022-10-06T23:09:44.726Z,1012.38
2022-10-06T23:14:44.529Z,1012.34
2022-10-06T23:19:44.471Z,1012.31
2022-10-06T23:24:44.471Z,1012.28
2022-10-06T23:29:44.365Z,1012.26
2022-10-06T23:34:44.440Z,1012.22
2022-10-06T23:39:44.334Z,1012.13
2022-10-06T23:44:44.278Z,1012.14
2022-10-06T23:49:46.255Z,1012.11
2022-10-06T23:54:44.185Z,1012.06
2022-10-06T23:59:44.023Z,1012.04
